Terminal Aerodrome Forecast
Issued by NWS

Home | Current Version | Previous Version | Text Only | Print | Product List | Glossary On
Versions: 1 2 3 4 5 6 7 8 9 10 11 12 13 14 15 16 17 18 19 20 21 22 23 24 25 26 27 28
000
FTUS43 KMKX 132115 AAC
TAFENW
TAF AMD
KENW 132115Z 1321/1418 27010KT P6SM SCT020 BKN030
      TEMPO 1322/1323 2SM -SN OVC015
     FM132300 32012G23KT P6SM OVC015
     FM140700 35011KT P6SM BKN080=

USA.gov is the U.S. government's official web portal to all federal, state and local government web resources and services.